PWSweather.com
Personal Weather Stations
Station Observations
SHAHALMS1
Eftra, Falkenberg, HA

EftraFalkenberg, HA

Lat: 56.85, Lon: 12.65

Elevation: 140

Station Type:

http://hem.passagen.se/risarp101

High Low Average
Temperature 60.1°F15.6°C 41.9°F5.5°C 53.6°F12.0°C
Dew Point 54.8°F12.7°C 35.5°F1.9°C 48.3°F9.1°C
Winds 7.9 mph 12.7 kmh Calm Calm 3.0 mph WSW4.8 kmh WSW
Wind Gusts 22.9 mph36.9 kmh -- 8.0 mph12.9 kmh
Humidity 88% 78% 82%
Pressure 30.30 in1026.1 mb 30.12 in1020.0 mb -
Precipitation 0.05 in1.3 mm - -
Hour Temp Dew Point Humidity Winds Wind Gusts Pressure Precip Precip Rate Daily Precip Total
12:00 AM 41.9°F5.5°C 35.5°F1.9°C 78% 5.3 mph E8.5 kmh E 9.7 mph15.6 kmh 30.30 in1026.1 mb 0.00 in0.0 mm 0.00 in0.0 mm 0.00 in0.0 mm
12:10 AM 42.3°F5.7°C 36.2°F2.3°C 79% 2.8 mph ESE4.5 kmh ESE 9.7 mph15.6 kmh 30.30 in1026.1 mb 0.00 in0.0 mm 0.00 in0.0 mm 0.00 in0.0 mm
12:20 AM 42.8°F6.0°C 37.1°F2.8°C 80% 3.3 mph ESE5.3 kmh ESE 9.7 mph15.6 kmh 30.30 in1026.1 mb 0.00 in0.0 mm 0.00 in0.0 mm 0.00 in0.0 mm
12:30 AM 43.2°F6.2°C 37.4°F3.0°C 80% Calm Calm -- 30.30 in1026.1 mb 0.00 in0.0 mm 0.00 in0.0 mm 0.00 in0.0 mm
12:40 AM 43.3°F6.3°C 37.6°F3.1°C 80% 0.3 mph E0.5 kmh E 3.9 mph6.3 kmh 30.30 in1026.1 mb 0.00 in0.0 mm 0.00 in0.0 mm 0.00 in0.0 mm
12:50 AM 43.7°F6.5°C 37.9°F3.3°C 80% 0.3 mph SE0.5 kmh SE 3.2 mph5.1 kmh 30.30 in1026.1 mb 0.00 in0.0 mm 0.00 in0.0 mm 0.00 in0.0 mm
01:00 AM 43.9°F6.6°C 38.1°F3.4°C 80% Calm Calm -- 30.27 in1025.1 mb 0.00 in0.0 mm 0.00 in0.0 mm 0.00 in0.0 mm
01:10 AM 43.7°F6.5°C 37.9°F3.3°C 80% 0.3 mph E0.5 kmh E 3.6 mph5.8 kmh 30.30 in1026.1 mb 0.00 in0.0 mm 0.00 in0.0 mm 0.00 in0.0 mm
01:20 AM 43.5°F6.4°C 37.4°F3.0°C 79% 0.1 mph E0.2 kmh E 1.8 mph2.9 kmh 30.30 in1026.1 mb 0.00 in0.0 mm 0.00 in0.0 mm 0.00 in0.0 mm
01:30 AM 43.5°F6.4°C 37.4°F3.0°C 79% Calm Calm -- 30.30 in1026.1 mb 0.00 in0.0 mm 0.00 in0.0 mm 0.00 in0.0 mm
01:40 AM 43.7°F6.5°C 37.6°F3.1°C 79% Calm Calm -- 30.27 in1025.1 mb 0.00 in0.0 mm 0.00 in0.0 mm 0.00 in0.0 mm
01:50 AM 43.7°F6.5°C 37.6°F3.1°C 79% Calm Calm -- 30.27 in1025.1 mb 0.00 in0.0 mm 0.00 in0.0 mm 0.00 in0.0 mm
02:00 AM 43.9°F6.6°C 38.1°F3.4°C 80% Calm Calm -- 30.27 in1025.1 mb 0.00 in0.0 mm 0.00 in0.0 mm 0.00 in0.0 mm
02:10 AM 44.1°F6.7°C 38.3°F3.5°C 80% Calm Calm -- 30.27 in1025.1 mb 0.00 in0.0 mm 0.00 in0.0 mm 0.00 in0.0 mm
02:20 AM 44.2°F6.8°C 38.5°F3.6°C 80% 0.8 mph SE1.3 kmh SE 5.0 mph8.0 kmh 30.27 in1025.1 mb 0.00 in0.0 mm 0.00 in0.0 mm 0.00 in0.0 mm
02:30 AM 44.4°F6.9°C 38.6°F3.7°C 80% 0.1 mph ESE0.2 kmh ESE 4.3 mph6.9 kmh 30.24 in1024.0 mb 0.00 in0.0 mm 0.00 in0.0 mm 0.00 in0.0 mm
02:40 AM 44.4°F6.9°C 38.6°F3.7°C 80% 0.2 mph ESE0.3 kmh ESE 5.7 mph9.2 kmh 30.24 in1024.0 mb 0.00 in0.0 mm 0.00 in0.0 mm 0.00 in0.0 mm
02:50 AM 44.6°F7.0°C 38.8°F3.8°C 80% 1.3 mph E2.1 kmh E 6.1 mph9.8 kmh 30.24 in1024.0 mb 0.00 in0.0 mm 0.00 in0.0 mm 0.00 in0.0 mm
03:00 AM 44.6°F7.0°C 38.8°F3.8°C 80% 0.7 mph E1.1 kmh E 5.4 mph8.7 kmh 30.24 in1024.0 mb 0.00 in0.0 mm 0.00 in0.0 mm 0.00 in0.0 mm
03:10 AM 44.6°F7.0°C 38.8°F3.8°C 80% Calm Calm -- 30.24 in1024.0 mb 0.00 in0.0 mm 0.00 in0.0 mm 0.00 in0.0 mm
03:20 AM 44.6°F7.0°C 38.8°F3.8°C 80% Calm Calm -- 30.24 in1024.0 mb 0.00 in0.0 mm 0.00 in0.0 mm 0.00 in0.0 mm
03:30 AM 44.6°F7.0°C 38.8°F3.8°C 80% Calm Calm -- 30.24 in1024.0 mb 0.00 in0.0 mm 0.00 in0.0 mm 0.00 in0.0 mm
03:40 AM 45.1°F7.3°C 39.7°F4.3°C 81% Calm Calm -- 30.24 in1024.0 mb 0.00 in0.0 mm 0.00 in0.0 mm 0.00 in0.0 mm
03:50 AM 45.9°F7.7°C 40.7°F4.8°C 82% Calm Calm -- 30.24 in1024.0 mb 0.00 in0.0 mm 0.00 in0.0 mm 0.00 in0.0 mm
04:00 AM 46.4°F8.0°C 41.5°F5.3°C 83% Calm Calm 2.1 mph3.4 kmh 30.24 in1024.0 mb 0.00 in0.0 mm 0.00 in0.0 mm 0.00 in0.0 mm
04:10 AM 46.8°F8.2°C 41.9°F5.5°C 83% 0.4 mph W0.6 kmh W 3.9 mph6.3 kmh 30.24 in1024.0 mb 0.00 in0.0 mm 0.00 in0.0 mm 0.00 in0.0 mm
04:20 AM 47.1°F8.4°C 42.2°F5.7°C 83% 0.9 mph W1.4 kmh W 2.1 mph3.4 kmh 30.24 in1024.0 mb 0.00 in0.0 mm 0.00 in0.0 mm 0.00 in0.0 mm
04:30 AM 47.7°F8.7°C 42.8°F6.0°C 83% 0.2 mph W0.3 kmh W 2.1 mph3.4 kmh 30.24 in1024.0 mb 0.00 in0.0 mm 0.00 in0.0 mm 0.00 in0.0 mm
04:40 AM 48.2°F9.0°C 43.3°F6.3°C 83% 0.6 mph W1.0 kmh W 6.1 mph9.8 kmh 30.24 in1024.0 mb 0.00 in0.0 mm 0.00 in0.0 mm 0.00 in0.0 mm
04:50 AM 48.7°F9.3°C 43.8°F6.6°C 83% 2.1 mph WNW3.4 kmh WNW 5.7 mph9.2 kmh 30.24 in1024.0 mb 0.00 in0.0 mm 0.00 in0.0 mm 0.00 in0.0 mm
05:00 AM 49.1°F9.5°C 44.2°F6.8°C 83% 1.8 mph W2.9 kmh W 6.8 mph10.9 kmh 30.24 in1024.0 mb 0.00 in0.0 mm 0.00 in0.0 mm 0.00 in0.0 mm
05:10 AM 49.3°F9.6°C 44.0°F6.7°C 82% 0.9 mph W1.4 kmh W 5.0 mph8.0 kmh 30.21 in1023.0 mb 0.00 in0.0 mm 0.00 in0.0 mm 0.00 in0.0 mm
05:20 AM 49.5°F9.7°C 43.9°F6.6°C 81% 2.0 mph W3.2 kmh W 6.1 mph9.8 kmh 30.21 in1023.0 mb 0.00 in0.0 mm 0.00 in0.0 mm 0.00 in0.0 mm
05:30 AM 49.6°F9.8°C 43.7°F6.5°C 80% 2.2 mph W3.5 kmh W 5.7 mph9.2 kmh 30.21 in1023.0 mb 0.00 in0.0 mm 0.00 in0.0 mm 0.00 in0.0 mm
05:40 AM 49.6°F9.8°C 43.4°F6.3°C 79% 2.1 mph W3.4 kmh W 3.9 mph6.3 kmh 30.21 in1023.0 mb 0.00 in0.0 mm 0.00 in0.0 mm 0.00 in0.0 mm
05:50 AM 49.6°F9.8°C 43.4°F6.3°C 79% 1.8 mph W2.9 kmh W 5.0 mph8.0 kmh 30.21 in1023.0 mb 0.00 in0.0 mm 0.00 in0.0 mm 0.00 in0.0 mm
06:00 AM 49.8°F9.9°C 43.6°F6.4°C 79% 1.8 mph W2.9 kmh W 5.7 mph9.2 kmh 30.21 in1023.0 mb 0.00 in0.0 mm 0.00 in0.0 mm 0.00 in0.0 mm
06:10 AM 50.0°F10.0°C 43.7°F6.5°C 79% 1.6 mph WNW2.6 kmh WNW 6.1 mph9.8 kmh 30.18 in1022.0 mb 0.00 in0.0 mm 0.00 in0.0 mm 0.00 in0.0 mm
06:20 AM 50.2°F10.1°C 43.9°F6.6°C 79% 2.8 mph W4.5 kmh W 6.1 mph9.8 kmh 30.18 in1022.0 mb 0.00 in0.0 mm 0.00 in0.0 mm 0.00 in0.0 mm
06:30 AM 50.5°F10.3°C 44.3°F6.8°C 79% 1.1 mph W1.8 kmh W 5.7 mph9.2 kmh 30.18 in1022.0 mb 0.00 in0.0 mm 0.00 in0.0 mm 0.00 in0.0 mm
06:40 AM 51.1°F10.6°C 44.8°F7.1°C 79% 1.5 mph NW2.4 kmh NW 5.0 mph8.0 kmh 30.18 in1022.0 mb 0.00 in0.0 mm 0.00 in0.0 mm 0.00 in0.0 mm
06:50 AM 51.3°F10.7°C 45.0°F7.2°C 79% 0.6 mph NW1.0 kmh NW 4.3 mph6.9 kmh 30.18 in1022.0 mb 0.00 in0.0 mm 0.00 in0.0 mm 0.00 in0.0 mm
07:00 AM 51.6°F10.9°C 45.3°F7.4°C 79% 1.0 mph WSW1.6 kmh WSW 4.7 mph7.6 kmh 30.18 in1022.0 mb 0.00 in0.0 mm 0.00 in0.0 mm 0.00 in0.0 mm
07:10 AM 52.0°F11.1°C 46.0°F7.8°C 80% 0.2 mph NW0.3 kmh NW 4.3 mph6.9 kmh 30.18 in1022.0 mb 0.00 in0.0 mm 0.00 in0.0 mm 0.00 in0.0 mm
07:20 AM 52.2°F11.2°C 46.2°F7.9°C 80% 0.1 mph W0.2 kmh W 1.4 mph2.3 kmh 30.18 in1022.0 mb 0.00 in0.0 mm 0.00 in0.0 mm 0.00 in0.0 mm
07:30 AM 52.5°F11.4°C 46.5°F8.1°C 80% 0.1 mph W0.2 kmh W 1.4 mph2.3 kmh 30.18 in1022.0 mb 0.00 in0.0 mm 0.00 in0.0 mm 0.00 in0.0 mm
07:40 AM 53.1°F11.7°C 47.1°F8.4°C 80% 1.0 mph NW1.6 kmh NW 5.0 mph8.0 kmh 30.18 in1022.0 mb 0.00 in0.0 mm 0.00 in0.0 mm 0.00 in0.0 mm
07:50 AM 53.2°F11.8°C 47.6°F8.7°C 81% 2.4 mph W3.9 kmh W 5.0 mph8.0 kmh 30.18 in1022.0 mb 0.00 in0.0 mm 0.00 in0.0 mm 0.00 in0.0 mm
08:00 AM 53.8°F12.1°C 48.4°F9.1°C 82% 1.5 mph W2.4 kmh W 4.7 mph7.6 kmh 30.18 in1022.0 mb 0.00 in0.0 mm 0.00 in0.0 mm 0.00 in0.0 mm
08:10 AM 54.1°F12.3°C 48.8°F9.3°C 82% 2.0 mph W3.2 kmh W 5.7 mph9.2 kmh 30.18 in1022.0 mb 0.00 in0.0 mm 0.00 in0.0 mm 0.00 in0.0 mm
08:20 AM 54.3°F12.4°C 49.3°F9.6°C 83% 0.5 mph W0.8 kmh W 2.1 mph3.4 kmh 30.18 in1022.0 mb 0.00 in0.0 mm 0.00 in0.0 mm 0.00 in0.0 mm
08:30 AM 54.5°F12.5°C 49.8°F9.9°C 84% 0.9 mph W1.4 kmh W 7.5 mph12.1 kmh 30.21 in1023.0 mb 0.00 in0.0 mm 0.00 in0.0 mm 0.00 in0.0 mm
08:40 AM 54.5°F12.5°C 49.8°F9.9°C 84% Calm Calm -- 30.18 in1022.0 mb 0.00 in0.0 mm 0.00 in0.0 mm 0.00 in0.0 mm
08:50 AM 54.9°F12.7°C 50.4°F10.2°C 85% 0.5 mph W0.8 kmh W 1.4 mph2.3 kmh 30.18 in1022.0 mb 0.00 in0.0 mm 0.00 in0.0 mm 0.00 in0.0 mm
09:00 AM 55.0°F12.8°C 50.9°F10.5°C 86% 1.9 mph W3.1 kmh W 6.8 mph10.9 kmh 30.18 in1022.0 mb 0.00 in0.0 mm 0.00 in0.0 mm 0.00 in0.0 mm
09:10 AM 55.9°F13.3°C 52.1°F11.2°C 87% 3.9 mph W6.3 kmh W 9.7 mph15.6 kmh 30.18 in1022.0 mb 0.00 in0.0 mm 0.00 in0.0 mm 0.00 in0.0 mm
09:20 AM 56.1°F13.4°C 52.3°F11.3°C 87% 4.4 mph W7.1 kmh W 5.4 mph8.7 kmh 30.18 in1022.0 mb 0.00 in0.0 mm 0.00 in0.0 mm 0.00 in0.0 mm
09:30 AM 56.1°F13.4°C 52.0°F11.1°C 86% 4.4 mph W7.1 kmh W 5.4 mph8.7 kmh 30.18 in1022.0 mb 0.00 in0.0 mm 0.00 in0.0 mm 0.00 in0.0 mm
09:40 AM 56.1°F13.4°C 52.0°F11.1°C 86% 3.2 mph W5.1 kmh W 3.9 mph6.3 kmh 30.21 in1023.0 mb 0.00 in0.0 mm 0.00 in0.0 mm 0.00 in0.0 mm
09:50 AM 56.1°F13.4°C 52.0°F11.1°C 86% 3.2 mph W5.1 kmh W 3.9 mph6.3 kmh 30.21 in1023.0 mb 0.00 in0.0 mm 0.00 in0.0 mm 0.00 in0.0 mm
10:00 AM 55.9°F13.3°C 51.8°F11.0°C 86% 3.2 mph W5.1 kmh W 3.9 mph6.3 kmh 30.21 in1023.0 mb 0.00 in0.0 mm 0.00 in0.0 mm 0.00 in0.0 mm
10:10 AM 56.5°F13.6°C 52.7°F11.5°C 87% 2.4 mph WNW3.9 kmh WNW 9.3 mph15.0 kmh 30.21 in1023.0 mb 0.00 in0.0 mm 0.00 in0.0 mm 0.00 in0.0 mm
10:20 AM 57.0°F13.9°C 53.2°F11.8°C 87% 4.2 mph WNW6.8 kmh WNW 11.1 mph17.9 kmh 30.21 in1023.0 mb 0.00 in0.0 mm 0.00 in0.0 mm 0.00 in0.0 mm
10:30 AM 57.6°F14.2°C 54.0°F12.2°C 88% 2.7 mph WNW4.3 kmh WNW 9.7 mph15.6 kmh 30.21 in1023.0 mb 0.00 in0.0 mm 0.00 in0.0 mm 0.00 in0.0 mm
10:40 AM 57.6°F14.2°C 53.7°F12.1°C 87% 4.9 mph WNW7.9 kmh WNW 9.3 mph15.0 kmh 30.21 in1023.0 mb 0.00 in0.0 mm 0.00 in0.0 mm 0.00 in0.0 mm
10:50 AM 57.6°F14.2°C 53.4°F11.9°C 86% 6.0 mph W9.7 kmh W 15.4 mph24.8 kmh 30.21 in1023.0 mb 0.00 in0.0 mm 0.00 in0.0 mm 0.00 in0.0 mm
11:00 AM 57.7°F14.3°C 53.6°F12.0°C 86% 4.6 mph W7.4 kmh W 10.4 mph16.7 kmh 30.21 in1023.0 mb 0.05 in1.3 mm 0.06 in1.5 mm 0.05 in1.3 mm
11:10 AM 57.4°F14.1°C 52.9°F11.6°C 85% 4.4 mph WNW7.1 kmh WNW 6.8 mph10.9 kmh 30.21 in1023.0 mb 0.05 in1.3 mm 0.00 in0.0 mm 0.05 in1.3 mm
11:20 AM 57.7°F14.3°C 53.6°F12.0°C 86% 2.6 mph WNW4.2 kmh WNW 4.7 mph7.6 kmh 30.21 in1023.0 mb 0.05 in1.3 mm 0.00 in0.0 mm 0.05 in1.3 mm
11:30 AM 57.7°F14.3°C 53.6°F12.0°C 86% 3.4 mph W5.5 kmh W 6.8 mph10.9 kmh 30.18 in1022.0 mb 0.05 in1.3 mm 0.00 in0.0 mm 0.05 in1.3 mm
11:40 AM 57.7°F14.3°C 53.6°F12.0°C 86% 4.9 mph WNW7.9 kmh WNW 11.5 mph18.5 kmh 30.18 in1022.0 mb 0.05 in1.3 mm 0.00 in0.0 mm 0.05 in1.3 mm
11:50 AM 57.9°F14.4°C 53.8°F12.1°C 86% 3.0 mph W4.8 kmh W 6.8 mph10.9 kmh 30.18 in1022.0 mb 0.05 in1.3 mm 0.00 in0.0 mm 0.05 in1.3 mm
12:00 PM 58.3°F14.6°C 54.1°F12.3°C 86% 3.6 mph W5.8 kmh W 7.9 mph12.7 kmh 30.21 in1023.0 mb 0.00 in0.0 mm 0.00 in0.0 mm 0.05 in1.3 mm
12:10 PM 58.5°F14.7°C 54.3°F12.4°C 86% 3.3 mph W5.3 kmh W 11.8 mph19.0 kmh 30.18 in1022.0 mb 0.00 in0.0 mm 0.00 in0.0 mm 0.05 in1.3 mm
12:20 PM 58.8°F14.9°C 54.6°F12.6°C 86% 5.4 mph WNW8.7 kmh WNW 11.8 mph19.0 kmh 30.18 in1022.0 mb 0.00 in0.0 mm 0.00 in0.0 mm 0.05 in1.3 mm
12:30 PM 59.4°F15.2°C 54.8°F12.7°C 85% 6.3 mph WNW10.1 kmh WNW 16.5 mph26.6 kmh 30.18 in1022.0 mb 0.00 in0.0 mm 0.00 in0.0 mm 0.05 in1.3 mm
12:40 PM 59.4°F15.2°C 54.5°F12.5°C 84% 5.4 mph W8.7 kmh W 12.5 mph20.1 kmh 30.18 in1022.0 mb 0.00 in0.0 mm 0.00 in0.0 mm 0.05 in1.3 mm
12:50 PM 59.2°F15.1°C 53.7°F12.1°C 82% 4.7 mph W7.6 kmh W 11.8 mph19.0 kmh 30.18 in1022.0 mb 0.00 in0.0 mm 0.00 in0.0 mm 0.05 in1.3 mm
01:00 PM 59.0°F15.0°C 53.5°F11.9°C 82% 5.0 mph W8.0 kmh W 9.7 mph15.6 kmh 30.18 in1022.0 mb 0.00 in0.0 mm 0.00 in0.0 mm 0.05 in1.3 mm
01:10 PM 58.6°F14.8°C 53.2°F11.8°C 82% 4.7 mph W7.6 kmh W 11.8 mph19.0 kmh 30.18 in1022.0 mb 0.00 in0.0 mm 0.00 in0.0 mm 0.05 in1.3 mm
01:20 PM 58.8°F14.9°C 53.3°F11.8°C 82% 7.7 mph W12.4 kmh W 17.2 mph27.7 kmh 30.18 in1022.0 mb 0.00 in0.0 mm 0.00 in0.0 mm 0.05 in1.3 mm
01:30 PM 58.8°F14.9°C 53.0°F11.7°C 81% 6.4 mph W10.3 kmh W 13.6 mph21.9 kmh 30.15 in1021.0 mb 0.00 in0.0 mm 0.00 in0.0 mm 0.05 in1.3 mm
01:40 PM 59.0°F15.0°C 53.2°F11.8°C 81% 6.7 mph WNW10.8 kmh WNW 15.4 mph24.8 kmh 30.15 in1021.0 mb 0.00 in0.0 mm 0.00 in0.0 mm 0.05 in1.3 mm
01:50 PM 59.4°F15.2°C 53.5°F11.9°C 81% 5.4 mph NW8.7 kmh NW 12.9 mph20.8 kmh 30.15 in1021.0 mb 0.00 in0.0 mm 0.00 in0.0 mm 0.05 in1.3 mm
02:00 PM 59.5°F15.3°C 53.4°F11.9°C 80% 5.9 mph W9.5 kmh W 19.3 mph31.1 kmh 30.15 in1021.0 mb 0.00 in0.0 mm 0.00 in0.0 mm 0.05 in1.3 mm
02:10 PM 59.7°F15.4°C 53.2°F11.8°C 79% 7.8 mph NW12.6 kmh NW 14.3 mph23.0 kmh 30.18 in1022.0 mb 0.00 in0.0 mm 0.00 in0.0 mm 0.05 in1.3 mm
02:20 PM 60.1°F15.6°C 53.9°F12.2°C 80% 5.7 mph W9.2 kmh W 13.6 mph21.9 kmh 30.18 in1022.0 mb 0.00 in0.0 mm 0.00 in0.0 mm 0.05 in1.3 mm
02:30 PM 59.9°F15.5°C 53.7°F12.1°C 80% 4.3 mph WNW6.9 kmh WNW 10.4 mph16.7 kmh 30.18 in1022.0 mb 0.00 in0.0 mm 0.00 in0.0 mm 0.05 in1.3 mm
02:40 PM 59.7°F15.4°C 53.2°F11.8°C 79% 4.6 mph NW7.4 kmh NW 11.8 mph19.0 kmh 30.21 in1023.0 mb 0.00 in0.0 mm 0.00 in0.0 mm 0.05 in1.3 mm
02:50 PM 59.4°F15.2°C 52.5°F11.4°C 78% 7.9 mph WNW12.7 kmh WNW 15.0 mph24.1 kmh 30.21 in1023.0 mb 0.00 in0.0 mm 0.00 in0.0 mm 0.05 in1.3 mm
03:00 PM 59.2°F15.1°C 52.3°F11.3°C 78% 6.6 mph WNW10.6 kmh WNW 17.5 mph28.2 kmh 30.21 in1023.0 mb 0.00 in0.0 mm 0.00 in0.0 mm 0.05 in1.3 mm
03:10 PM 59.0°F15.0°C 52.1°F11.2°C 78% 7.1 mph WNW11.4 kmh WNW 12.9 mph20.8 kmh 30.18 in1022.0 mb 0.00 in0.0 mm 0.00 in0.0 mm 0.05 in1.3 mm
03:20 PM 58.8°F14.9°C 52.0°F11.1°C 78% 6.5 mph W10.5 kmh W 14.0 mph22.5 kmh 30.18 in1022.0 mb 0.00 in0.0 mm 0.00 in0.0 mm 0.05 in1.3 mm
03:30 PM 58.5°F14.7°C 52.0°F11.1°C 79% 3.7 mph W6.0 kmh W 9.7 mph15.6 kmh 30.18 in1022.0 mb 0.00 in0.0 mm 0.00 in0.0 mm 0.05 in1.3 mm
03:40 PM 58.3°F14.6°C 51.8°F11.0°C 79% 7.2 mph W11.6 kmh W 17.9 mph28.8 kmh 30.18 in1022.0 mb 0.00 in0.0 mm 0.00 in0.0 mm 0.05 in1.3 mm
03:50 PM 57.9°F14.4°C 51.4°F10.8°C 79% 6.7 mph WNW10.8 kmh WNW 22.9 mph36.9 kmh 30.18 in1022.0 mb 0.00 in0.0 mm 0.00 in0.0 mm 0.05 in1.3 mm
04:00 PM 57.6°F14.2°C 51.4°F10.8°C 80% 7.3 mph W11.7 kmh W 16.8 mph27.0 kmh 30.15 in1021.0 mb 0.00 in0.0 mm 0.00 in0.0 mm 0.05 in1.3 mm
04:10 PM 57.4°F14.1°C 51.3°F10.7°C 80% 4.8 mph W7.7 kmh W 10.4 mph16.7 kmh 30.15 in1021.0 mb 0.00 in0.0 mm 0.00 in0.0 mm 0.05 in1.3 mm
04:20 PM 57.2°F14.0°C 51.1°F10.6°C 80% 6.4 mph W10.3 kmh W 12.9 mph20.8 kmh 30.15 in1021.0 mb 0.00 in0.0 mm 0.00 in0.0 mm 0.05 in1.3 mm
04:30 PM 57.2°F14.0°C 51.4°F10.8°C 81% 3.7 mph NW6.0 kmh NW 11.8 mph19.0 kmh 30.15 in1021.0 mb 0.00 in0.0 mm 0.00 in0.0 mm 0.05 in1.3 mm
04:40 PM 57.0°F13.9°C 51.2°F10.7°C 81% 4.7 mph W7.6 kmh W 9.7 mph15.6 kmh 30.15 in1021.0 mb 0.00 in0.0 mm 0.00 in0.0 mm 0.05 in1.3 mm
04:50 PM 57.0°F13.9°C 51.2°F10.7°C 81% 5.2 mph WNW8.4 kmh WNW 11.8 mph19.0 kmh 30.15 in1021.0 mb 0.00 in0.0 mm 0.00 in0.0 mm 0.05 in1.3 mm
05:00 PM 56.8°F13.8°C 51.1°F10.6°C 81% 6.4 mph W10.3 kmh W 13.6 mph21.9 kmh 30.15 in1021.0 mb 0.00 in0.0 mm 0.00 in0.0 mm 0.05 in1.3 mm
05:10 PM 56.8°F13.8°C 51.1°F10.6°C 81% 7.0 mph W11.3 kmh W 12.5 mph20.1 kmh 30.15 in1021.0 mb 0.00 in0.0 mm 0.00 in0.0 mm 0.05 in1.3 mm
05:20 PM 56.7°F13.7°C 50.9°F10.5°C 81% 5.3 mph W8.5 kmh W 14.0 mph22.5 kmh 30.15 in1021.0 mb 0.00 in0.0 mm 0.00 in0.0 mm 0.05 in1.3 mm
05:30 PM 56.7°F13.7°C 50.9°F10.5°C 81% 4.3 mph WNW6.9 kmh WNW 9.7 mph15.6 kmh 30.15 in1021.0 mb 0.00 in0.0 mm 0.00 in0.0 mm 0.05 in1.3 mm
05:40 PM 56.5°F13.6°C 50.7°F10.4°C 81% 5.1 mph W8.2 kmh W 10.4 mph16.7 kmh 30.12 in1020.0 mb 0.00 in0.0 mm 0.00 in0.0 mm 0.05 in1.3 mm
05:50 PM 56.5°F13.6°C 50.7°F10.4°C 81% 5.1 mph WNW8.2 kmh WNW 10.4 mph16.7 kmh 30.12 in1020.0 mb 0.00 in0.0 mm 0.00 in0.0 mm 0.05 in1.3 mm
06:00 PM 56.3°F13.5°C 50.5°F10.3°C 81% 4.7 mph W7.6 kmh W 12.2 mph19.6 kmh 30.15 in1021.0 mb 0.00 in0.0 mm 0.00 in0.0 mm 0.05 in1.3 mm
06:10 PM 56.3°F13.5°C 50.5°F10.3°C 81% 6.0 mph W9.7 kmh W 9.3 mph15.0 kmh 30.15 in1021.0 mb 0.00 in0.0 mm 0.00 in0.0 mm 0.05 in1.3 mm
06:20 PM 56.3°F13.5°C 50.5°F10.3°C 81% 5.6 mph WNW9.0 kmh WNW 11.5 mph18.5 kmh 30.15 in1021.0 mb 0.00 in0.0 mm 0.00 in0.0 mm 0.05 in1.3 mm
06:30 PM 56.3°F13.5°C 50.5°F10.3°C 81% 5.3 mph W8.5 kmh W 12.5 mph20.1 kmh 30.12 in1020.0 mb 0.00 in0.0 mm 0.00 in0.0 mm 0.05 in1.3 mm
06:40 PM 56.1°F13.4°C 50.7°F10.4°C 82% 6.7 mph W10.8 kmh W 11.8 mph19.0 kmh 30.15 in1021.0 mb 0.00 in0.0 mm 0.00 in0.0 mm 0.05 in1.3 mm
06:50 PM 55.9°F13.3°C 50.5°F10.3°C 82% 4.2 mph W6.8 kmh W 11.1 mph17.9 kmh 30.15 in1021.0 mb 0.00 in0.0 mm 0.00 in0.0 mm 0.05 in1.3 mm
07:00 PM 55.9°F13.3°C 50.5°F10.3°C 82% 4.3 mph W6.9 kmh W 11.8 mph19.0 kmh 30.15 in1021.0 mb 0.00 in0.0 mm 0.00 in0.0 mm 0.05 in1.3 mm
07:10 PM 55.9°F13.3°C 50.5°F10.3°C 82% 4.5 mph W7.2 kmh W 11.8 mph19.0 kmh 30.15 in1021.0 mb 0.00 in0.0 mm 0.00 in0.0 mm 0.05 in1.3 mm
07:20 PM 55.8°F13.2°C 50.3°F10.2°C 82% 4.1 mph W6.6 kmh W 9.7 mph15.6 kmh 30.15 in1021.0 mb 0.00 in0.0 mm 0.00 in0.0 mm 0.05 in1.3 mm
07:30 PM 55.8°F13.2°C 50.7°F10.4°C 83% 3.1 mph W5.0 kmh W 11.1 mph17.9 kmh 30.15 in1021.0 mb 0.00 in0.0 mm 0.00 in0.0 mm 0.05 in1.3 mm
07:40 PM 55.9°F13.3°C 50.9°F10.5°C 83% 3.7 mph W6.0 kmh W 9.3 mph15.0 kmh 30.15 in1021.0 mb 0.00 in0.0 mm 0.00 in0.0 mm 0.05 in1.3 mm
07:50 PM 55.9°F13.3°C 50.9°F10.5°C 83% 3.1 mph WNW5.0 kmh WNW 11.5 mph18.5 kmh 30.15 in1021.0 mb 0.00 in0.0 mm 0.00 in0.0 mm 0.05 in1.3 mm
08:00 PM 55.9°F13.3°C 50.9°F10.5°C 83% 3.4 mph WNW5.5 kmh WNW 7.5 mph12.1 kmh 30.15 in1021.0 mb 0.00 in0.0 mm 0.00 in0.0 mm 0.05 in1.3 mm
08:10 PM 55.9°F13.3°C 50.9°F10.5°C 83% 1.7 mph W2.7 kmh W 6.8 mph10.9 kmh 30.15 in1021.0 mb 0.00 in0.0 mm 0.00 in0.0 mm 0.05 in1.3 mm
08:20 PM 55.9°F13.3°C 50.9°F10.5°C 83% 1.7 mph WNW2.7 kmh WNW 6.4 mph10.3 kmh 30.15 in1021.0 mb 0.00 in0.0 mm 0.00 in0.0 mm 0.05 in1.3 mm
08:30 PM 55.9°F13.3°C 50.9°F10.5°C 83% 1.5 mph WSW2.4 kmh WSW 6.8 mph10.9 kmh 30.15 in1021.0 mb 0.00 in0.0 mm 0.00 in0.0 mm 0.05 in1.3 mm
08:40 PM 55.9°F13.3°C 50.9°F10.5°C 83% 2.2 mph W3.5 kmh W 10.0 mph16.1 kmh 30.15 in1021.0 mb 0.00 in0.0 mm 0.00 in0.0 mm 0.05 in1.3 mm
08:50 PM 55.9°F13.3°C 50.9°F10.5°C 83% 1.8 mph W2.9 kmh W 6.4 mph10.3 kmh 30.15 in1021.0 mb 0.00 in0.0 mm 0.00 in0.0 mm 0.05 in1.3 mm
09:00 PM 55.9°F13.3°C 50.9°F10.5°C 83% 1.3 mph WSW2.1 kmh WSW 6.4 mph10.3 kmh 30.15 in1021.0 mb 0.00 in0.0 mm 0.00 in0.0 mm 0.05 in1.3 mm
09:10 PM 55.9°F13.3°C 50.9°F10.5°C 83% 1.7 mph WNW2.7 kmh WNW 5.7 mph9.2 kmh 30.15 in1021.0 mb 0.00 in0.0 mm 0.00 in0.0 mm 0.05 in1.3 mm
09:20 PM 55.9°F13.3°C 51.2°F10.7°C 84% 2.6 mph WNW4.2 kmh WNW 9.3 mph15.0 kmh 30.15 in1021.0 mb 0.00 in0.0 mm 0.00 in0.0 mm 0.05 in1.3 mm
09:30 PM 55.9°F13.3°C 51.2°F10.7°C 84% 3.4 mph W5.5 kmh W 10.0 mph16.1 kmh 30.15 in1021.0 mb 0.00 in0.0 mm 0.00 in0.0 mm 0.05 in1.3 mm
09:40 PM 55.9°F13.3°C 51.2°F10.7°C 84% 2.6 mph WNW4.2 kmh WNW 7.5 mph12.1 kmh 30.15 in1021.0 mb 0.00 in0.0 mm 0.00 in0.0 mm 0.05 in1.3 mm
09:50 PM 55.9°F13.3°C 51.2°F10.7°C 84% 2.0 mph W3.2 kmh W 5.4 mph8.7 kmh 30.15 in1021.0 mb 0.00 in0.0 mm 0.00 in0.0 mm 0.05 in1.3 mm
10:00 PM 55.9°F13.3°C 51.2°F10.7°C 84% 2.5 mph W4.0 kmh W 6.4 mph10.3 kmh 30.15 in1021.0 mb 0.00 in0.0 mm 0.00 in0.0 mm 0.05 in1.3 mm
10:10 PM 55.9°F13.3°C 51.5°F10.8°C 85% 4.0 mph W6.4 kmh W 8.6 mph13.8 kmh 30.15 in1021.0 mb 0.00 in0.0 mm 0.00 in0.0 mm 0.05 in1.3 mm
10:20 PM 55.9°F13.3°C 51.5°F10.8°C 85% 3.7 mph W6.0 kmh W 8.9 mph14.3 kmh 30.15 in1021.0 mb 0.00 in0.0 mm 0.00 in0.0 mm 0.05 in1.3 mm
10:30 PM 55.9°F13.3°C 51.5°F10.8°C 85% 4.2 mph W6.8 kmh W 8.9 mph14.3 kmh 30.15 in1021.0 mb 0.00 in0.0 mm 0.00 in0.0 mm 0.05 in1.3 mm
10:40 PM 55.9°F13.3°C 51.5°F10.8°C 85% 2.9 mph WNW4.7 kmh WNW 7.2 mph11.6 kmh 30.15 in1021.0 mb 0.00 in0.0 mm 0.00 in0.0 mm 0.05 in1.3 mm
10:50 PM 55.9°F13.3°C 51.5°F10.8°C 85% 3.2 mph WNW5.1 kmh WNW 7.9 mph12.7 kmh 30.15 in1021.0 mb 0.00 in0.0 mm 0.00 in0.0 mm 0.05 in1.3 mm
11:00 PM 55.9°F13.3°C 51.8°F11.0°C 86% 4.1 mph W6.6 kmh W 8.9 mph14.3 kmh 30.12 in1020.0 mb 0.00 in0.0 mm 0.00 in0.0 mm 0.05 in1.3 mm
11:10 PM 55.9°F13.3°C 51.8°F11.0°C 86% 3.5 mph W5.6 kmh W 12.9 mph20.8 kmh 30.15 in1021.0 mb 0.00 in0.0 mm 0.00 in0.0 mm 0.05 in1.3 mm
11:20 PM 55.9°F13.3°C 51.8°F11.0°C 86% 2.0 mph WSW3.2 kmh WSW 7.5 mph12.1 kmh 30.15 in1021.0 mb 0.00 in0.0 mm 0.00 in0.0 mm 0.05 in1.3 mm
11:30 PM 55.9°F13.3°C 51.8°F11.0°C 86% 2.8 mph WSW4.5 kmh WSW 9.7 mph15.6 kmh 30.12 in1020.0 mb 0.00 in0.0 mm 0.00 in0.0 mm 0.05 in1.3 mm
11:40 PM 56.1°F13.4°C 52.0°F11.1°C 86% 3.6 mph WSW5.8 kmh WSW 7.5 mph12.1 kmh 30.15 in1021.0 mb 0.00 in0.0 mm 0.00 in0.0 mm 0.05 in1.3 mm
11:50 PM 56.1°F13.4°C 52.3°F11.3°C 87% 4.0 mph W6.4 kmh W 7.9 mph12.7 kmh 30.15 in1021.0 mb 0.00 in0.0 mm 0.00 in0.0 mm 0.05 in1.3 mm